createdAt,value
2023-01-07T00:00:56.190Z,96.063232
2023-01-07T00:02:04.880Z,96.063232
2023-01-07T00:03:14.564Z,96.063232
2023-01-07T00:04:24.264Z,95.959473
2023-01-07T00:05:32.919Z,95.855713
2023-01-07T00:06:42.588Z,95.648193
2023-01-07T00:07:52.286Z,95.751953
2023-01-07T00:09:01.081Z,95.855713
2023-01-07T00:10:09.816Z,95.751953
2023-01-07T00:11:18.373Z,95.751953
2023-01-07T00:12:27.056Z,95.751953
2023-01-07T00:13:36.763Z,95.648193
2023-01-07T00:14:46.433Z,95.751953
2023-01-07T00:15:56.141Z,95.751953
2023-01-07T00:17:05.800Z,95.751953
2023-01-07T00:18:13.456Z,95.751953
2023-01-07T00:19:23.159Z,95.855713
2023-01-07T00:20:32.824Z,95.751953
2023-01-07T00:21:42.503Z,95.751953
2023-01-07T00:22:52.177Z,95.855713
2023-01-07T00:24:02.850Z,95.855713
2023-01-07T00:25:12.686Z,95.751953
2023-01-07T00:26:21.226Z,95.751953
2023-01-07T00:27:29.957Z,95.855713
2023-01-07T00:28:39.634Z,95.751953
2023-01-07T00:29:47.290Z,95.751953
2023-01-07T00:30:57.124Z,95.648193
2023-01-07T00:32:05.692Z,95.648193
2023-01-07T00:33:16.372Z,95.648193
2023-01-07T00:34:25.037Z,95.648193
2023-01-07T00:35:33.706Z,95.648193
2023-01-07T00:36:42.448Z,95.751953
2023-01-07T00:37:51.119Z,95.648193
2023-01-07T00:38:58.783Z,95.751953
2023-01-07T00:40:08.455Z,95.855713
2023-01-07T00:41:18.228Z,95.855713
2023-01-07T00:42:26.834Z,95.959473
2023-01-07T00:43:36.531Z,96.063232
2023-01-07T00:44:45.197Z,95.959473
2023-01-07T00:45:54.883Z,95.855713
2023-01-07T00:47:02.606Z,95.959473
2023-01-07T00:48:11.250Z,95.959473
2023-01-07T00:49:20.922Z,96.063232
2023-01-07T00:50:29.623Z,96.166992
2023-01-07T00:51:38.405Z,96.063232
2023-01-07T00:52:47.087Z,96.063232
2023-01-07T00:53:56.802Z,96.166992
2023-01-07T00:55:06.483Z,96.368408
2023-01-07T00:56:14.167Z,96.472168
2023-01-07T00:57:23.964Z,96.575928
2023-01-07T00:58:33.522Z,96.679688
2023-01-07T00:59:43.231Z,96.679688
2023-01-07T01:00:53.015Z,96.783447
2023-01-07T01:02:02.712Z,96.783447
2023-01-07T01:03:12.260Z,96.679688
2023-01-07T01:04:21.913Z,96.575928
2023-01-07T01:05:29.632Z,96.472168
2023-01-07T01:06:38.313Z,96.472168
2023-01-07T01:07:47.983Z,96.368408
2023-01-07T01:08:56.646Z,96.472168
2023-01-07T01:10:05.316Z,96.520996
2023-01-07T01:11:14.042Z,96.679688
2023-01-07T01:12:23.731Z,96.679688
2023-01-07T01:13:33.548Z,96.575928
2023-01-07T01:14:42.123Z,96.575928
2023-01-07T01:15:49.837Z,96.722412
2023-01-07T01:16:59.531Z,96.722412
2023-01-07T01:18:08.186Z,96.618652
2023-01-07T01:19:17.870Z,96.618652
2023-01-07T01:20:27.525Z,96.722412
2023-01-07T01:21:36.190Z,96.826172
2023-01-07T01:22:45.867Z,96.826172
2023-01-07T01:23:53.535Z,96.929932
2023-01-07T01:25:03.222Z,96.929932
2023-01-07T01:26:12.910Z,96.929932
2023-01-07T01:27:21.581Z,96.929932
2023-01-07T01:28:30.322Z,96.929932
2023-01-07T01:29:40.100Z,96.722412
2023-01-07T01:30:48.631Z,96.618652
2023-01-07T01:31:58.298Z,96.618652
2023-01-07T01:33:06.974Z,96.722412
2023-01-07T01:34:15.678Z,96.722412
2023-01-07T01:35:25.352Z,96.722412
2023-01-07T01:36:34.024Z,96.826172
2023-01-07T01:37:42.692Z,96.722412
2023-01-07T01:38:51.376Z,96.722412
2023-01-07T01:40:00.132Z,96.722412
2023-01-07T01:41:09.813Z,96.826172
2023-01-07T01:42:17.587Z,96.826172
2023-01-07T01:43:27.881Z,96.826172
2023-01-07T01:44:37.554Z,96.929932
2023-01-07T01:45:47.357Z,97.033691
2023-01-07T01:46:56.968Z,97.137451
2023-01-07T01:48:05.587Z,97.137451
2023-01-07T01:49:14.248Z,97.241211
2023-01-07T01:50:23.935Z,97.338867
2023-01-07T01:51:30.628Z,97.338867
2023-01-07T01:52:40.399Z,97.338867
2023-01-07T01:53:51.199Z,97.338867
2023-01-07T01:55:00.854Z,97.338867
2023-01-07T01:56:10.539Z,97.338867
2023-01-07T01:57:19.258Z,97.338867
2023-01-07T01:58:28.921Z,97.338867
2023-01-07T01:59:38.604Z,97.338867
2023-01-07T02:00:47.346Z,97.442627
2023-01-07T02:01:57.185Z,97.546387
2023-01-07T02:03:06.661Z,97.546387
2023-01-07T02:04:15.340Z,97.546387
2023-01-07T02:05:24.030Z,97.546387
2023-01-07T02:06:32.695Z,97.546387
2023-01-07T02:07:42.379Z,97.338867
2023-01-07T02:08:52.095Z,97.241211
2023-01-07T02:09:59.753Z,97.241211
2023-01-07T02:11:07.425Z,97.241211
2023-01-07T02:12:17.114Z,97.241211
2023-01-07T02:13:25.764Z,97.137451
2023-01-07T02:14:34.436Z,97.137451
2023-01-07T02:15:43.122Z,97.137451
2023-01-07T02:16:51.792Z,97.033691
2023-01-07T02:18:01.507Z,97.033691
2023-01-07T02:19:10.137Z,97.033691
2023-01-07T02:20:26.887Z,97.033691
2023-01-07T02:21:35.547Z,96.929932
2023-01-07T02:22:45.215Z,97.033691
2023-01-07T02:23:53.881Z,96.929932
2023-01-07T02:25:03.546Z,97.033691
2023-01-07T02:26:11.222Z,97.033691
2023-01-07T02:27:21.233Z,97.033691
2023-01-07T02:28:30.644Z,96.929932
2023-01-07T02:29:38.302Z,96.826172
2023-01-07T02:30:47.975Z,96.826172
2023-01-07T02:31:56.693Z,96.826172
2023-01-07T02:33:05.446Z,96.826172
2023-01-07T02:34:14.989Z,97.033691
2023-01-07T02:35:23.694Z,97.137451
2023-01-07T02:36:33.366Z,97.137451
2023-01-07T02:37:42.066Z,97.137451
2023-01-07T02:38:51.745Z,97.241211
2023-01-07T02:40:01.452Z,97.338867
2023-01-07T02:41:10.105Z,97.338867
2023-01-07T02:42:18.777Z,97.241211
2023-01-07T02:43:28.474Z,97.241211
2023-01-07T02:44:38.154Z,97.241211
2023-01-07T02:45:47.860Z,97.241211
2023-01-07T02:46:56.466Z,97.338867
2023-01-07T02:48:04.116Z,97.442627
2023-01-07T02:49:13.933Z,97.442627
2023-01-07T02:50:23.514Z,97.442627
2023-01-07T02:51:32.177Z,97.338867
2023-01-07T02:52:41.896Z,97.241211
2023-01-07T02:53:51.554Z,97.137451
2023-01-07T02:55:01.243Z,97.241211
2023-01-07T02:56:09.900Z,97.241211
2023-01-07T02:57:18.559Z,97.241211
2023-01-07T02:58:28.241Z,97.241211
2023-01-07T02:59:36.887Z,97.387695
2023-01-07T03:00:46.615Z,97.241211
2023-01-07T03:01:56.359Z,97.076416
2023-01-07T03:03:04.987Z,96.972656
2023-01-07T03:04:14.786Z,97.076416
2023-01-07T03:05:23.449Z,96.972656
2023-01-07T03:06:31.002Z,96.66748
2023-01-07T03:07:40.673Z,96.563721
2023-01-07T03:08:49.307Z,96.66748
2023-01-07T03:09:57.979Z,96.356201
2023-01-07T03:11:07.673Z,96.148682
2023-01-07T03:12:16.333Z,96.356201
2023-01-07T03:13:25.011Z,96.313477
2023-01-07T03:14:33.656Z,96.002197
2023-01-07T03:15:42.316Z,96.002197
2023-01-07T03:16:52.011Z,96.002197
2023-01-07T03:18:00.653Z,95.697021
2023-01-07T03:19:09.324Z,95.489502
2023-01-07T03:20:18.084Z,95.532227
2023-01-07T03:21:26.851Z,95.489502
2023-01-07T03:22:36.393Z,95.593262
2023-01-07T03:23:44.077Z,95.697021
2023-01-07T03:24:51.750Z,95.800781
2023-01-07T03:26:01.502Z,95.739746
2023-01-07T03:27:10.152Z,95.635986
2023-01-07T03:28:19.821Z,95.635986
2023-01-07T03:29:28.499Z,95.635986
2023-01-07T03:30:38.168Z,95.635986
2023-01-07T03:31:47.874Z,95.428467
2023-01-07T03:32:55.483Z,95.227051
2023-01-07T03:34:05.156Z,95.227051
2023-01-07T03:35:14.897Z,95.019531
2023-01-07T03:36:24.549Z,94.915771
2023-01-07T03:37:34.355Z,94.604492
2023-01-07T03:38:43.898Z,94.812012
2023-01-07T03:39:52.551Z,94.708252
2023-01-07T03:41:02.253Z,94.604492
2023-01-07T03:42:10.931Z,94.604492
2023-01-07T03:43:20.603Z,94.604492
2023-01-07T03:44:30.272Z,94.604492
2023-01-07T03:45:39.938Z,94.604492
2023-01-07T03:46:49.631Z,94.812012
2023-01-07T03:47:58.300Z,94.915771
2023-01-07T03:49:07.982Z,95.123291
2023-01-07T03:50:17.635Z,95.227051
2023-01-07T03:51:25.304Z,95.227051
2023-01-07T03:52:33.982Z,95.330811
2023-01-07T03:53:43.761Z,95.428467
2023-01-07T03:54:53.317Z,95.532227
2023-01-07T03:56:02.966Z,95.739746
2023-01-07T03:57:12.645Z,95.635986
2023-01-07T03:58:21.335Z,95.532227
2023-01-07T03:59:29.995Z,95.581055
2023-01-07T04:00:38.673Z,95.581055
2023-01-07T04:01:47.465Z,95.166016
2023-01-07T04:02:56.990Z,94.958496
2023-01-07T04:04:05.735Z,94.854736
2023-01-07T04:05:14.309Z,94.854736
2023-01-07T04:06:22.978Z,94.549561
2023-01-07T04:07:31.628Z,93.829346
2023-01-07T04:08:40.309Z,93.621826
2023-01-07T04:09:49.078Z,93.933105
2023-01-07T04:10:56.619Z,94.238281
2023-01-07T04:12:06.312Z,93.414307
2023-01-07T04:13:15.967Z,92.797852
2023-01-07T04:14:24.629Z,92.755127
2023-01-07T04:15:34.355Z,92.651367
2023-01-07T04:16:43.028Z,92.340088
2023-01-07T04:17:52.644Z,92.443848
2023-01-07T04:19:01.314Z,92.547607
2023-01-07T04:20:10.989Z,92.755127
2023-01-07T04:21:20.669Z,92.755127
2023-01-07T04:22:29.338Z,93.060303
2023-01-07T04:23:38.995Z,93.786621
2023-01-07T04:24:48.655Z,94.238281
2023-01-07T04:25:57.439Z,94.445801
2023-01-07T04:27:07.008Z,94.549561
2023-01-07T04:28:15.655Z,94.65332
2023-01-07T04:29:25.366Z,94.75708
2023-01-07T04:30:34.040Z,94.854736
2023-01-07T04:31:42.689Z,95.001221
2023-01-07T04:32:52.371Z,94.592285
2023-01-07T04:34:01.030Z,94.281006
2023-01-07T04:35:10.728Z,94.07959
2023-01-07T04:36:19.393Z,94.07959
2023-01-07T04:37:28.124Z,93.97583
2023-01-07T04:38:37.804Z,93.87207
2023-01-07T04:39:46.482Z,93.97583
2023-01-07T04:40:54.135Z,94.07959
2023-01-07T04:42:03.939Z,93.97583
2023-01-07T04:43:13.482Z,94.177246
2023-01-07T04:44:23.171Z,94.281006
2023-01-07T04:45:32.834Z,94.384766
2023-01-07T04:46:41.497Z,94.488525
2023-01-07T04:47:51.185Z,94.384766
2023-01-07T04:49:00.859Z,94.281006
2023-01-07T04:50:08.562Z,94.488525
2023-01-07T04:51:18.231Z,94.488525
2023-01-07T04:52:27.920Z,94.488525
2023-01-07T04:53:36.565Z,94.384766
2023-01-07T04:54:46.239Z,94.177246
2023-01-07T04:55:55.931Z,94.42749
2023-01-07T04:57:05.588Z,94.53125
2023-01-07T04:58:15.383Z,94.53125
2023-01-07T04:59:24.927Z,94.73877
2023-01-07T05:00:34.614Z,94.946289
2023-01-07T05:01:43.407Z,95.153809
2023-01-07T05:02:51.894Z,95.196533
2023-01-07T05:04:00.614Z,95.196533
2023-01-07T05:05:09.212Z,95.300293
2023-01-07T05:06:18.870Z,95.300293
2023-01-07T05:07:27.546Z,95.196533
2023-01-07T05:08:37.202Z,95.196533
2023-01-07T05:09:46.875Z,95.300293
2023-01-07T05:10:57.527Z,95.404053
2023-01-07T05:12:06.179Z,95.404053
2023-01-07T05:13:15.859Z,95.550537
2023-01-07T05:14:25.632Z,95.758057
2023-01-07T05:15:36.159Z,95.855713
2023-01-07T05:16:44.890Z,96.063232
2023-01-07T05:17:52.471Z,96.166992
2023-01-07T05:19:02.149Z,96.417236
2023-01-07T05:20:11.817Z,96.520996
2023-01-07T05:21:20.499Z,96.728516
2023-01-07T05:22:29.147Z,96.832275
2023-01-07T05:23:37.812Z,97.039795
2023-01-07T05:24:47.485Z,97.143555
2023-01-07T05:25:55.133Z,97.290039
2023-01-07T05:27:02.788Z,97.393799
2023-01-07T05:28:12.443Z,97.601318
2023-01-07T05:29:21.098Z,97.705078
2023-01-07T05:30:29.964Z,97.808838
2023-01-07T05:31:39.433Z,98.010254
2023-01-07T05:32:48.089Z,98.162842
2023-01-07T05:33:57.745Z,98.266602
2023-01-07T05:35:05.432Z,98.370361
2023-01-07T05:36:13.097Z,98.468018
2023-01-07T05:37:22.749Z,98.468018
2023-01-07T05:38:31.385Z,98.724365
2023-01-07T05:39:41.026Z,98.931885
2023-01-07T05:40:50.146Z,99.035645
2023-01-07T05:41:59.335Z,99.139404
2023-01-07T05:43:09.014Z,99.243164
2023-01-07T05:44:17.659Z,99.34082
2023-01-07T05:45:26.330Z,99.34082
2023-01-07T05:46:36.137Z,99.493408
2023-01-07T05:47:45.681Z,99.493408
2023-01-07T05:48:54.326Z,99.597168
2023-01-07T05:50:03.975Z,99.700928
2023-01-07T05:51:12.647Z,99.804688
2023-01-07T05:52:22.327Z,99.951172
2023-01-07T05:53:30.018Z,99.993896
2023-01-07T05:54:37.661Z,99.993896
2023-01-07T05:55:47.324Z,99.993896
2023-01-07T05:56:55.970Z,99.993896
2023-01-07T05:58:05.648Z,99.993896
2023-01-07T05:59:15.356Z,99.993896
2023-01-07T06:00:24.011Z,99.993896
2023-01-07T06:01:33.725Z,99.993896
2023-01-07T06:02:42.458Z,99.993896
2023-01-07T06:03:51.026Z,99.993896
2023-01-07T06:05:00.744Z,99.993896
2023-01-07T06:06:08.334Z,99.993896
2023-01-07T06:07:16.992Z,99.993896
2023-01-07T06:08:26.640Z,99.993896
2023-01-07T06:09:36.294Z,99.993896
2023-01-07T06:10:45.980Z,99.993896
2023-01-07T06:11:54.631Z,99.993896
2023-01-07T06:13:04.294Z,99.993896
2023-01-07T06:14:13.984Z,99.993896
2023-01-07T06:15:22.633Z,99.993896
2023-01-07T06:16:31.438Z,99.993896
2023-01-07T06:17:40.055Z,99.993896
2023-01-07T06:18:48.818Z,99.993896
2023-01-07T06:19:58.352Z,99.993896
2023-01-07T06:21:06.007Z,99.993896
2023-01-07T06:22:14.672Z,99.993896
2023-01-07T06:23:23.335Z,99.993896
2023-01-07T06:24:32.012Z,99.993896
2023-01-07T06:25:42.677Z,99.993896
2023-01-07T06:26:51.340Z,99.993896
2023-01-07T06:28:00.039Z,99.993896
2023-01-07T06:29:09.699Z,99.993896
2023-01-07T06:30:18.369Z,99.993896
2023-01-07T06:31:28.060Z,99.993896
2023-01-07T06:32:35.671Z,99.993896
2023-01-07T06:33:43.351Z,99.993896
2023-01-07T06:34:52.121Z,99.993896
2023-01-07T06:36:00.645Z,99.993896
2023-01-07T06:37:10.313Z,99.993896
2023-01-07T06:38:18.981Z,99.993896
2023-01-07T06:39:27.728Z,99.993896
2023-01-07T06:40:37.379Z,99.993896
2023-01-07T06:41:46.035Z,99.993896
2023-01-07T06:42:54.696Z,99.993896
2023-01-07T06:44:04.358Z,99.993896
2023-01-07T06:45:13.047Z,99.993896
2023-01-07T06:46:22.748Z,99.993896
2023-01-07T06:47:32.397Z,99.993896
2023-01-07T06:48:41.069Z,99.993896
2023-01-07T06:49:50.755Z,99.993896
2023-01-07T06:50:59.631Z,99.993896
2023-01-07T06:52:07.216Z,99.993896
2023-01-07T06:53:16.906Z,99.993896
2023-01-07T06:54:25.576Z,99.993896
2023-01-07T06:55:34.232Z,99.993896
2023-01-07T06:56:42.965Z,99.993896
2023-01-07T06:57:52.662Z,99.993896
2023-01-07T06:59:01.325Z,99.993896
2023-01-07T07:00:09.997Z,99.993896
2023-01-07T07:01:19.835Z,99.993896
2023-01-07T07:02:29.597Z,99.993896
2023-01-07T07:03:38.111Z,99.993896
2023-01-07T07:04:46.789Z,99.993896
2023-01-07T07:05:55.455Z,99.993896
2023-01-07T07:07:04.153Z,99.993896
2023-01-07T07:08:13.823Z,99.993896
2023-01-07T07:09:22.463Z,99.993896
2023-01-07T07:10:31.120Z,99.993896
2023-01-07T07:11:40.775Z,99.993896
2023-01-07T07:12:49.431Z,99.993896
2023-01-07T07:13:59.114Z,99.993896
2023-01-07T07:15:07.795Z,99.993896
2023-01-07T07:16:16.526Z,99.993896
2023-01-07T07:17:26.160Z,99.993896
2023-01-07T07:18:34.850Z,99.993896
2023-01-07T07:19:43.582Z,99.993896
2023-01-07T07:20:53.252Z,99.993896
2023-01-07T07:22:04.667Z,99.993896
2023-01-07T07:23:11.687Z,99.993896
2023-01-07T07:24:21.284Z,99.993896
2023-01-07T07:25:29.981Z,99.993896
2023-01-07T07:26:39.652Z,99.993896
2023-01-07T07:27:48.327Z,99.993896
2023-01-07T07:28:56.993Z,99.993896
2023-01-07T07:30:06.669Z,99.993896
2023-01-07T07:31:16.584Z,99.993896
2023-01-07T07:32:26.172Z,99.993896
2023-01-07T07:33:34.890Z,99.993896
2023-01-07T07:34:43.538Z,99.993896
2023-01-07T07:35:53.210Z,99.993896
2023-01-07T07:37:01.907Z,99.993896
2023-01-07T07:38:09.569Z,99.993896
2023-01-07T07:39:19.383Z,99.993896
2023-01-07T07:40:28.979Z,99.993896
2023-01-07T07:41:38.666Z,99.993896
2023-01-07T07:43:09.755Z,99.993896
2023-01-07T07:43:58.026Z,99.993896
2023-01-07T07:45:07.724Z,99.993896
2023-01-07T07:46:15.475Z,99.993896
2023-01-07T07:47:25.058Z,99.993896
2023-01-07T07:48:34.755Z,99.993896
2023-01-07T07:49:44.441Z,99.993896
2023-01-07T07:50:54.214Z,99.993896
2023-01-07T07:52:02.013Z,99.993896
2023-01-07T07:53:10.712Z,99.993896
2023-01-07T07:54:21.792Z,99.993896
2023-01-07T07:55:30.200Z,99.993896
2023-01-07T07:56:39.761Z,99.993896
2023-01-07T07:57:49.481Z,99.993896
2023-01-07T07:58:59.132Z,99.993896
2023-01-07T08:00:07.837Z,99.993896
2023-01-07T08:01:16.580Z,99.993896
2023-01-07T08:02:25.226Z,99.993896
2023-01-07T08:03:34.925Z,99.993896
2023-01-07T08:04:43.676Z,99.993896
2023-01-07T08:05:53.350Z,99.993896
2023-01-07T08:07:03.034Z,98.736572
2023-01-07T08:08:11.735Z,96.887207
2023-01-07T08:09:21.405Z,95.239258
2023-01-07T08:10:32.105Z,93.792725
2023-01-07T08:11:41.861Z,93.237305
2023-01-07T08:12:51.581Z,92.926025
2023-01-07T08:14:01.575Z,92.468262
2023-01-07T08:15:10.251Z,91.088867
2023-01-07T08:16:19.967Z,90.570068
2023-01-07T08:17:28.790Z,89.746094
2023-01-07T08:18:37.455Z,89.996338
2023-01-07T08:19:46.140Z,90.368652
2023-01-07T08:20:54.913Z,89.953613
2023-01-07T08:22:03.603Z,89.025879
2023-01-07T08:23:13.313Z,89.129639
2023-01-07T08:24:22.974Z,89.025879
2023-01-07T08:25:31.645Z,88.305664
2023-01-07T08:26:40.305Z,88.616943
2023-01-07T08:27:50.180Z,88.061523
2023-01-07T08:28:58.746Z,87.27417
2023-01-07T08:30:07.433Z,87.341309
2023-01-07T08:31:16.190Z,87.237549
2023-01-07T08:32:25.806Z,86.309814
2023-01-07T08:33:35.473Z,86.657715
2023-01-07T08:34:44.159Z,86.865234
2023-01-07T08:35:52.864Z,86.761475
2023-01-07T08:37:02.537Z,87.06665
2023-01-07T08:38:12.232Z,87.109375
2023-01-07T08:39:21.938Z,87.005615
2023-01-07T08:40:31.627Z,87.353516
2023-01-07T08:41:41.305Z,87.316895
2023-01-07T08:42:50.988Z,86.38916
2023-01-07T08:43:59.788Z,86.38916
2023-01-07T08:45:08.358Z,86.346436
2023-01-07T08:46:18.093Z,85.83374
2023-01-07T08:47:27.924Z,85.174561
2023-01-07T08:48:36.563Z,84.210205
2023-01-07T08:49:46.329Z,83.898926
2023-01-07T08:50:56.015Z,83.862305
2023-01-07T08:52:05.747Z,83.306885
2023-01-07T08:53:15.477Z,81.829834
2023-01-07T08:54:23.150Z,80.908203
2023-01-07T08:55:32.830Z,80.737305
2023-01-07T08:56:41.511Z,81.45752
2023-01-07T08:57:50.279Z,81.25
2023-01-07T08:58:58.939Z,80.633545
2023-01-07T09:00:08.753Z,80.981445
2023-01-07T09:01:19.363Z,81.121826
2023-01-07T09:02:27.091Z,82.397461
2023-01-07T09:03:34.819Z,82.250977
2023-01-07T09:04:44.456Z,82.458496
2023-01-07T09:05:54.147Z,81.945801
2023-01-07T09:07:04.876Z,81.945801
2023-01-07T09:08:15.559Z,82.214355
2023-01-07T09:09:25.240Z,81.762695
2023-01-07T09:10:33.922Z,81.420898
2023-01-07T09:11:43.660Z,80.249023
2023-01-07T09:12:52.336Z,79.290771
2023-01-07T09:14:02.023Z,78.570557
2023-01-07T09:15:11.890Z,79.290771
2023-01-07T09:16:20.539Z,79.119873
2023-01-07T09:17:29.271Z,78.918457
2023-01-07T09:18:37.977Z,79.803467
2023-01-07T09:19:47.698Z,79.455566
2023-01-07T09:20:56.399Z,78.356934
2023-01-07T09:22:04.062Z,77.294922
2023-01-07T09:23:13.787Z,75.860596
2023-01-07T09:24:23.491Z,75.756836
2023-01-07T09:25:33.139Z,76.202393
2023-01-07T09:26:41.864Z,76.715088
2023-01-07T09:27:51.664Z,77.331543
2023-01-07T09:29:01.337Z,76.922607
2023-01-07T09:30:09.221Z,76.922607
2023-01-07T09:31:17.171Z,76.409912
2023-01-07T09:32:26.605Z,76.617432
2023-01-07T09:33:36.295Z,76.446533
2023-01-07T09:34:44.979Z,77.099609
2023-01-07T09:35:54.693Z,78.02124
2023-01-07T09:37:04.381Z,77.954102
2023-01-07T09:38:14.109Z,78.881836
2023-01-07T09:39:22.809Z,78.979492
2023-01-07T09:40:31.485Z,79.187012
2023-01-07T09:41:41.216Z,78.942871
2023-01-07T09:42:50.976Z,78.979492
2023-01-07T09:44:01.895Z,79.046631
2023-01-07T09:45:10.448Z,78.979492
2023-01-07T09:46:20.212Z,79.217529
2023-01-07T09:47:29.796Z,77.947998
2023-01-07T09:48:36.461Z,76.885986
2023-01-07T09:49:44.150Z,76.885986
2023-01-07T09:50:53.821Z,76.33667
2023-01-07T09:52:03.527Z,76.031494
2023-01-07T09:53:12.198Z,76.135254
2023-01-07T09:54:21.876Z,76.098633
2023-01-07T09:55:31.591Z,75.756836
2023-01-07T09:56:40.270Z,74.694824
2023-01-07T09:57:48.925Z,74.560547
2023-01-07T09:58:56.606Z,73.944092
2023-01-07T10:00:06.368Z,73.809814
2023-01-07T10:01:16.192Z,73.028564
2023-01-07T10:02:25.987Z,74.11499
2023-01-07T10:03:35.563Z,74.938965
2023-01-07T10:04:44.249Z,75.036621
2023-01-07T10:05:53.987Z,74.902344
2023-01-07T10:07:03.675Z,74.597168
2023-01-07T10:08:29.638Z,74.353027
2023-01-07T10:09:24.013Z,74.456787
2023-01-07T10:10:32.677Z,74.047852
2023-01-07T10:11:42.959Z,73.706055
2023-01-07T10:12:51.122Z,73.980713
2023-01-07T10:14:00.794Z,75.244141
2023-01-07T10:15:10.469Z,75.140381
2023-01-07T10:16:19.198Z,75.244141
2023-01-07T10:17:27.799Z,75.3479
2023-01-07T10:18:37.632Z,76.306152
2023-01-07T10:19:47.191Z,75.958252
2023-01-07T10:20:56.852Z,75.415039
2023-01-07T10:22:06.543Z,75.720215
2023-01-07T10:23:15.209Z,75.006104
2023-01-07T10:24:23.923Z,75.518799
2023-01-07T10:25:33.592Z,75.653076
2023-01-07T10:26:43.284Z,76.403809
2023-01-07T10:27:52.989Z,77.288818
2023-01-07T10:29:00.656Z,76.678467
2023-01-07T10:30:10.388Z,76.782227
2023-01-07T10:31:19.104Z,76.434326
2023-01-07T10:32:27.804Z,76.403809
2023-01-07T10:33:36.487Z,75.20752
2023-01-07T10:34:45.302Z,74.389648
2023-01-07T10:35:56.748Z,74.353027
2023-01-07T10:37:04.556Z,74.182129
2023-01-07T10:38:13.202Z,72.619629
2023-01-07T10:39:22.888Z,71.77124
2023-01-07T10:40:32.597Z,71.362305
2023-01-07T10:41:41.290Z,71.228027
2023-01-07T10:42:50.042Z,70.410156
2023-01-07T10:43:59.720Z,71.020508
2023-01-07T10:45:09.397Z,70.849609
2023-01-07T10:46:18.114Z,71.868896
2023-01-07T10:47:26.775Z,70.684814
2023-01-07T10:48:36.470Z,69.696045
2023-01-07T10:49:45.136Z,71.124268
2023-01-07T10:50:53.985Z,70.98999
2023-01-07T10:52:03.541Z,70.751953
2023-01-07T10:53:12.252Z,69.42749
2023-01-07T10:54:22.905Z,68.884277
2023-01-07T10:55:31.585Z,68.139648
2023-01-07T10:56:41.297Z,67.797852
2023-01-07T10:57:49.979Z,68.713379
2023-01-07T10:58:59.697Z,69.42749
2023-01-07T11:00:09.420Z,69.018555
2023-01-07T11:01:18.235Z,68.481445
2023-01-07T11:02:26.964Z,68.444824
2023-01-07T11:03:36.515Z,68.212891
2023-01-07T11:04:46.232Z,66.760254
2023-01-07T11:05:56.121Z,66.85791
2023-01-07T11:07:05.691Z,66.18042
2023-01-07T11:08:15.366Z,67.193604
2023-01-07T11:09:25.059Z,67.633057
2023-01-07T11:10:34.744Z,67.736816
2023-01-07T11:11:44.421Z,67.492676
2023-01-07T11:12:54.154Z,68.713379
2023-01-07T11:14:02.838Z,68.408203
2023-01-07T11:15:11.514Z,68.444824
2023-01-07T11:16:21.283Z,69.561768
2023-01-07T11:17:29.922Z,68.884277
2023-01-07T11:18:39.629Z,69.494629
2023-01-07T11:19:49.346Z,70.10498
2023-01-07T11:20:58.113Z,70.275879
2023-01-07T11:22:07.712Z,69.866943
2023-01-07T11:23:16.427Z,69.53125
2023-01-07T11:24:24.093Z,68.884277
2023-01-07T11:25:33.789Z,68.884277
2023-01-07T11:26:43.461Z,67.938232
2023-01-07T11:27:52.173Z,67.767334
2023-01-07T11:29:01.861Z,68.035889
2023-01-07T11:30:10.557Z,68.615723
2023-01-07T11:31:19.501Z,68.920898
2023-01-07T11:32:27.077Z,68.652344
2023-01-07T11:34:00.923Z,67.431641
2023-01-07T11:34:47.467Z,67.156982
2023-01-07T11:35:56.283Z,68.682861
2023-01-07T11:37:06.075Z,68.07251
2023-01-07T11:38:15.637Z,67.663574
2023-01-07T11:39:24.329Z,67.730713
2023-01-07T11:40:34.007Z,68.572998
2023-01-07T11:41:40.669Z,68.981934
2023-01-07T11:42:48.373Z,69.189453
2023-01-07T11:43:58.037Z,68.981934
2023-01-07T11:45:06.726Z,69.726562
2023-01-07T11:46:20.648Z,69.830322
2023-01-07T11:47:27.036Z,69.830322
2023-01-07T11:48:35.745Z,69.897461
2023-01-07T11:49:45.417Z,69.696045
2023-01-07T11:50:53.136Z,69.726562
2023-01-07T11:52:02.808Z,69.628906
2023-01-07T11:53:12.591Z,69.628906
2023-01-07T11:54:22.166Z,69.830322
2023-01-07T11:55:30.810Z,70.135498
2023-01-07T11:56:40.494Z,69.9646
2023-01-07T11:57:49.163Z,70.477295
2023-01-07T11:58:59.828Z,70.611572
2023-01-07T12:00:08.505Z,70.947266
2023-01-07T12:01:18.309Z,71.5271
2023-01-07T12:02:28.022Z,71.429443
2023-01-07T12:03:36.621Z,71.630859
2023-01-07T12:04:45.233Z,71.392822
2023-01-07T12:05:53.915Z,70.648193
2023-01-07T12:07:02.582Z,70.343018
2023-01-07T12:08:12.370Z,70.611572
2023-01-07T12:09:20.175Z,71.191406
2023-01-07T12:10:27.793Z,70.88623
2023-01-07T12:11:37.462Z,70.172119
2023-01-07T12:12:46.145Z,70.477295
2023-01-07T12:13:55.112Z,70.849609
2023-01-07T12:15:04.714Z,69.9646
2023-01-07T12:16:14.427Z,70.440674
2023-01-07T12:17:24.220Z,69.934082
2023-01-07T12:18:32.895Z,70.037842
2023-01-07T12:19:42.658Z,70.269775
2023-01-07T12:20:50.312Z,70.343018
2023-01-07T12:21:58.997Z,69.86084
2023-01-07T12:23:08.710Z,70.269775
2023-01-07T12:24:18.488Z,70.782471
2023-01-07T12:25:28.319Z,70.782471
2023-01-07T12:26:39.439Z,70.544434
2023-01-07T12:27:49.105Z,69.32373
2023-01-07T12:28:58.786Z,70.068359
2023-01-07T12:30:08.524Z,70.812988
2023-01-07T12:31:17.309Z,70.574951
2023-01-07T12:32:26.937Z,70.574951
2023-01-07T12:33:36.623Z,70.544434
2023-01-07T12:34:45.301Z,70.513916
2023-01-07T12:35:52.980Z,69.390869
2023-01-07T12:37:01.711Z,69.592285
2023-01-07T12:38:11.378Z,69.152832
2023-01-07T12:39:20.066Z,68.847656
2023-01-07T12:40:27.740Z,68.237305
2023-01-07T12:41:37.655Z,68.676758
2023-01-07T12:42:47.367Z,69.018555
2023-01-07T12:43:57.700Z,69.525146
2023-01-07T12:45:07.024Z,70.269775
2023-01-07T12:46:15.974Z,70.477295
2023-01-07T12:47:30.315Z,70.678711
2023-01-07T12:48:36.475Z,70.782471
2023-01-07T12:49:45.162Z,70.678711
2023-01-07T12:50:54.874Z,70.068359
2023-01-07T12:52:03.538Z,70.135498
2023-01-07T12:53:13.223Z,70.202637
2023-01-07T12:54:22.913Z,70.715332
2023-01-07T12:55:31.599Z,70.611572
2023-01-07T12:56:41.414Z,71.356201
2023-01-07T12:57:50.983Z,71.936035
2023-01-07T12:58:59.660Z,71.801758
2023-01-07T13:00:09.367Z,70.983887
2023-01-07T13:01:18.166Z,70.678711
2023-01-07T13:02:27.938Z,71.087646
2023-01-07T13:03:36.481Z,71.362305
2023-01-07T13:04:45.245Z,70.544434
2023-01-07T13:05:54.879Z,70.849609
2023-01-07T13:07:03.672Z,70.544434
2023-01-07T13:08:11.360Z,70.574951
2023-01-07T13:09:21.058Z,70.983887
2023-01-07T13:10:30.736Z,71.020508